createdAt,value
2017-09-08T00:01:54.180Z,7.20
2017-09-08T00:04:20.459Z,5.67
2017-09-08T00:06:47.473Z,6.30
2017-09-08T00:09:13.849Z,6.70
2017-09-08T00:11:40.860Z,7.10
2017-09-08T00:14:07.879Z,7.20
2017-09-08T00:16:34.156Z,7.30
2017-09-08T00:19:01.182Z,7.57
2017-09-08T00:21:27.472Z,7.20
2017-09-08T00:23:53.731Z,7.17
2017-09-08T00:26:20.082Z,8.17
2017-09-08T00:28:46.669Z,7.63
2017-09-08T00:31:12.937Z,8.40
2017-09-08T00:33:39.238Z,7.90
2017-09-08T00:36:05.521Z,7.60
2017-09-08T00:38:32.550Z,6.93
2017-09-08T00:40:58.846Z,7.27
2017-09-08T00:43:25.137Z,7.07
2017-09-08T00:45:52.145Z,7.60
2017-09-08T00:48:18.440Z,7.70
2017-09-08T00:50:44.712Z,6.80
2017-09-08T00:53:11.007Z,6.90
2017-09-08T00:55:37.315Z,7.47
2017-09-08T00:58:03.605Z,8.00
2017-09-08T01:00:30.630Z,8.43
2017-09-08T01:02:56.930Z,7.33
2017-09-08T01:05:23.206Z,7.20
2017-09-08T01:07:50.269Z,6.83
2017-09-08T01:10:17.295Z,7.17
2017-09-08T01:12:43.567Z,7.13
2017-09-08T01:15:09.885Z,7.90
2017-09-08T01:17:36.183Z,8.70
2017-09-08T01:20:02.499Z,7.50
2017-09-08T01:22:28.786Z,7.27
2017-09-08T01:24:55.081Z,8.07
2017-09-08T01:27:22.106Z,6.87
2017-09-08T01:29:48.385Z,8.40
2017-09-08T01:32:15.400Z,7.73
2017-09-08T01:34:41.672Z,7.83
2017-09-08T01:37:07.975Z,7.40
2017-09-08T01:39:34.989Z,7.37
2017-09-08T01:42:01.274Z,7.57
2017-09-08T01:44:27.564Z,7.97
2017-09-08T01:46:53.912Z,9.00
2017-09-08T01:49:20.187Z,8.53
2017-09-08T01:51:46.433Z,9.30
2017-09-08T01:54:12.707Z,8.97
2017-09-08T01:56:38.979Z,9.63
2017-09-08T01:59:05.246Z,10.40
2017-09-08T02:01:32.269Z,9.67
2017-09-08T02:03:58.541Z,9.53
2017-09-08T02:06:24.826Z,9.00
2017-09-08T02:08:51.096Z,10.63
2017-09-08T02:11:18.750Z,9.67
2017-09-08T02:13:45.104Z,9.50
2017-09-08T02:16:11.393Z,10.57
2017-09-08T02:18:38.595Z,10.80
2017-09-08T02:21:04.880Z,10.20
2017-09-08T02:23:31.169Z,11.70
2017-09-08T02:25:57.453Z,11.30
2017-09-08T02:28:24.465Z,10.90
2017-09-08T02:30:50.767Z,10.90
2017-09-08T02:33:17.032Z,11.37
2017-09-08T02:35:43.314Z,10.20
2017-09-08T02:38:09.581Z,10.40
2017-09-08T02:40:35.855Z,11.60
2017-09-08T02:43:03.785Z,11.87
2017-09-08T02:45:31.745Z,11.33
2017-09-08T02:47:58.021Z,11.10
2017-09-08T02:50:24.285Z,12.20
2017-09-08T02:52:50.594Z,11.93
2017-09-08T02:55:16.868Z,11.43
2017-09-08T02:57:43.818Z,11.87
2017-09-08T03:00:10.087Z,12.60
2017-09-08T03:02:36.367Z,11.50
2017-09-08T03:05:02.653Z,12.17
2017-09-08T03:07:28.997Z,13.10
2017-09-08T03:09:55.303Z,12.30
2017-09-08T03:12:22.824Z,12.60
2017-09-08T03:14:49.086Z,11.70
2017-09-08T03:17:16.100Z,13.20
2017-09-08T03:19:42.353Z,13.03
2017-09-08T03:22:09.399Z,13.13
2017-09-08T03:24:35.689Z,12.20
2017-09-08T03:27:01.945Z,13.00
2017-09-08T03:29:28.227Z,12.37
2017-09-08T03:31:54.484Z,12.33
2017-09-08T03:34:20.763Z,12.30
2017-09-08T03:36:47.032Z,12.87
2017-09-08T03:39:13.317Z,12.70
2017-09-08T03:41:40.312Z,12.00
2017-09-08T03:44:06.588Z,13.00
2017-09-08T03:46:33.609Z,13.40
2017-09-08T03:48:59.889Z,11.77
2017-09-08T03:51:26.141Z,12.70
2017-09-08T03:53:52.416Z,13.60
2017-09-08T03:56:19.420Z,12.60
2017-09-08T03:58:45.703Z,12.97
2017-09-08T04:01:11.974Z,13.00
2017-09-08T04:03:38.252Z,12.57
2017-09-08T04:06:05.265Z,13.00
2017-09-08T04:08:31.541Z,12.83
2017-09-08T04:10:57.816Z,11.80
2017-09-08T04:13:24.077Z,13.63
2017-09-08T04:15:51.088Z,12.60
2017-09-08T04:18:17.360Z,12.73
2017-09-08T04:20:45.361Z,13.17
2017-09-08T04:23:11.623Z,12.50
2017-09-08T04:25:37.888Z,12.97
2017-09-08T04:28:04.896Z,11.80
2017-09-08T04:30:32.712Z,13.90
2017-09-08T04:32:58.967Z,12.30
2017-09-08T04:35:25.261Z,13.30
2017-09-08T04:37:52.276Z,13.00
2017-09-08T04:40:18.570Z,12.97
2017-09-08T04:42:44.859Z,13.20
2017-09-08T04:45:11.899Z,12.60
2017-09-08T04:47:38.889Z,13.53
2017-09-08T04:50:05.170Z,12.60
2017-09-08T04:52:31.471Z,12.10
2017-09-08T04:54:57.735Z,12.43
2017-09-08T04:57:24.037Z,12.87
2017-09-08T04:59:50.318Z,11.13
2017-09-08T05:02:16.597Z,12.33
2017-09-08T05:04:42.910Z,12.00
2017-09-08T05:07:09.192Z,12.20
2017-09-08T05:09:36.205Z,11.73
2017-09-08T05:12:03.248Z,11.80
2017-09-08T05:14:30.295Z,12.97
2017-09-08T05:16:57.480Z,12.17
2017-09-08T05:19:24.489Z,11.13
2017-09-08T05:21:50.760Z,12.43
2017-09-08T05:24:17.802Z,12.77
2017-09-08T05:26:44.089Z,13.03
2017-09-08T05:29:10.506Z,12.63
2017-09-08T05:31:36.846Z,12.07
2017-09-08T05:34:03.129Z,12.10
2017-09-08T05:36:29.469Z,13.00
2017-09-08T05:38:55.748Z,13.07
2017-09-08T05:41:22.021Z,11.70
2017-09-08T05:43:48.312Z,12.80
2017-09-08T05:46:14.600Z,11.60
2017-09-08T05:48:40.868Z,11.93
2017-09-08T05:51:07.162Z,11.20
2017-09-08T05:53:33.450Z,11.20
2017-09-08T05:55:59.741Z,12.93
2017-09-08T05:58:25.999Z,11.47
2017-09-08T06:00:52.443Z,11.27
2017-09-08T06:03:18.784Z,11.80
2017-09-08T06:05:45.068Z,12.17
2017-09-08T06:08:11.369Z,13.10
2017-09-08T06:10:37.655Z,11.67
2017-09-08T06:13:03.951Z,11.27
2017-09-08T06:15:30.249Z,10.80
2017-09-08T06:17:56.529Z,12.20
2017-09-08T06:20:23.603Z,11.50
2017-09-08T06:22:49.894Z,11.07
2017-09-08T06:25:16.184Z,13.10
2017-09-08T06:27:42.446Z,11.80
2017-09-08T06:30:08.761Z,10.87
2017-09-08T06:32:35.043Z,11.30
2017-09-08T06:35:01.353Z,10.87
2017-09-08T06:37:27.616Z,11.00
2017-09-08T06:39:53.913Z,12.10
2017-09-08T06:42:20.225Z,11.80
2017-09-08T06:44:46.652Z,11.27
2017-09-08T06:47:12.945Z,12.17
2017-09-08T06:49:39.269Z,11.60
2017-09-08T06:52:05.558Z,12.73
2017-09-08T06:54:32.616Z,11.50
2017-09-08T06:56:59.668Z,13.30
2017-09-08T06:59:26.697Z,11.40
2017-09-08T07:01:52.996Z,11.10
2017-09-08T07:04:19.260Z,12.27
2017-09-08T07:06:46.308Z,11.03
2017-09-08T07:09:12.604Z,12.30
2017-09-08T07:11:38.875Z,11.27
2017-09-08T07:14:05.941Z,11.13
2017-09-08T07:16:32.257Z,11.27
2017-09-08T07:18:59.312Z,11.60
2017-09-08T07:21:26.328Z,11.10
2017-09-08T07:23:52.607Z,10.90
2017-09-08T07:26:18.911Z,10.60
2017-09-08T07:28:45.253Z,11.40
2017-09-08T07:31:11.570Z,10.27
2017-09-08T07:33:38.613Z,11.00
2017-09-08T07:36:04.902Z,11.90
2017-09-08T07:38:31.190Z,10.03
2017-09-08T07:40:57.487Z,11.20
2017-09-08T07:43:23.773Z,10.23
2017-09-08T07:45:50.050Z,9.77
2017-09-08T07:48:17.106Z,12.23
2017-09-08T07:50:44.139Z,10.20
2017-09-08T07:53:10.424Z,11.77
2017-09-08T07:55:36.749Z,11.70
2017-09-08T07:58:03.059Z,11.20
2017-09-08T08:00:29.404Z,11.67
2017-09-08T08:02:55.724Z,12.13
2017-09-08T08:05:22.017Z,12.10
2017-09-08T08:07:49.870Z,12.80
2017-09-08T08:10:16.142Z,11.17
2017-09-08T08:12:43.182Z,11.40
2017-09-08T08:15:09.470Z,11.40
2017-09-08T08:17:35.822Z,10.87
2017-09-08T08:20:02.880Z,10.90
2017-09-08T08:22:29.183Z,11.27
2017-09-08T08:24:56.323Z,10.57
2017-09-08T08:27:22.599Z,11.50
2017-09-08T08:29:49.607Z,11.40
2017-09-08T08:32:15.879Z,10.87
2017-09-08T08:34:42.182Z,11.70
2017-09-08T08:37:08.432Z,10.10
2017-09-08T08:39:35.661Z,10.20
2017-09-08T08:42:01.953Z,10.60
2017-09-08T08:44:28.241Z,9.73
2017-09-08T08:46:54.552Z,10.60
2017-09-08T08:49:20.825Z,10.10
2017-09-08T08:51:47.090Z,10.40
2017-09-08T08:54:13.391Z,10.60
2017-09-08T08:56:39.682Z,10.90
2017-09-08T08:59:06.717Z,28.73
2017-09-08T09:01:32.977Z,9.77
2017-09-08T09:03:59.249Z,10.33
2017-09-08T09:06:25.520Z,10.13
2017-09-08T09:08:52.548Z,9.57
2017-09-08T09:11:19.594Z,9.30
2017-09-08T09:13:45.872Z,11.87
2017-09-08T09:16:12.158Z,9.43
2017-09-08T09:18:39.196Z,9.27
2017-09-08T09:21:05.511Z,10.20
2017-09-08T09:23:31.777Z,9.70
2017-09-08T09:25:58.808Z,9.40
2017-09-08T09:28:25.114Z,11.10
2017-09-08T09:30:51.485Z,9.87
2017-09-08T09:33:18.519Z,9.90
2017-09-08T09:35:44.867Z,10.53
2017-09-08T09:38:11.886Z,10.43
2017-09-08T09:40:38.164Z,12.10
2017-09-08T09:43:04.460Z,9.30
2017-09-08T09:45:30.768Z,10.90
2017-09-08T09:47:57.069Z,10.33
2017-09-08T09:50:23.353Z,8.97
2017-09-08T09:52:50.406Z,9.80
2017-09-08T09:55:16.732Z,9.20
2017-09-08T09:57:43.760Z,9.83
2017-09-08T10:00:10.052Z,9.90
2017-09-08T10:02:36.341Z,9.80
2017-09-08T10:05:03.379Z,10.40
2017-09-08T10:07:29.693Z,9.50
2017-09-08T10:09:55.963Z,9.70
2017-09-08T10:12:23.006Z,10.80
2017-09-08T10:14:50.068Z,9.60
2017-09-08T10:17:17.101Z,9.73
2017-09-08T10:19:43.399Z,8.73
2017-09-08T10:22:09.738Z,9.70
2017-09-08T10:24:36.781Z,10.10
2017-09-08T10:27:03.044Z,11.07
2017-09-08T10:29:29.548Z,10.67
2017-09-08T10:31:56.590Z,9.53
2017-09-08T10:34:23.632Z,9.73
2017-09-08T10:36:49.926Z,9.20
2017-09-08T10:39:16.247Z,9.20
2017-09-08T10:41:42.545Z,9.50
2017-09-08T10:44:08.883Z,9.77
2017-09-08T10:46:35.205Z,8.63
2017-09-08T10:49:01.508Z,9.23
2017-09-08T10:51:27.806Z,9.77
2017-09-08T10:53:54.118Z,9.90
2017-09-08T10:56:20.409Z,9.47
2017-09-08T10:58:47.500Z,8.40
2017-09-08T11:01:13.811Z,8.30
2017-09-08T11:03:40.862Z,9.20
2017-09-08T11:06:07.187Z,8.87
2017-09-08T11:08:33.497Z,8.83
2017-09-08T11:10:59.769Z,8.23
2017-09-08T11:13:26.063Z,8.10
2017-09-08T11:15:53.437Z,9.60
2017-09-08T11:18:20.910Z,13.13
2017-09-08T11:20:47.185Z,9.50
2017-09-08T11:23:14.240Z,9.73
2017-09-08T11:25:40.565Z,8.33
2017-09-08T11:28:07.639Z,9.10
2017-09-08T11:30:33.936Z,8.60
2017-09-08T11:33:06.778Z,8.77
2017-09-08T11:35:51.239Z,8.57
2017-09-08T11:38:17.521Z,9.20
2017-09-08T11:40:43.842Z,8.23
2017-09-08T11:43:10.145Z,9.17
2017-09-08T11:45:36.452Z,8.60
2017-09-08T11:48:02.752Z,7.90
2017-09-08T11:50:29.064Z,8.30
2017-09-08T11:52:55.372Z,9.03
2017-09-08T11:55:21.651Z,8.73
2017-09-08T11:57:47.943Z,9.17
2017-09-08T12:00:14.999Z,9.10
2017-09-08T12:02:41.315Z,9.93
2017-09-08T12:05:07.646Z,9.60
2017-09-08T12:07:34.692Z,11.00
2017-09-08T12:10:01.000Z,9.80
2017-09-08T12:12:27.313Z,9.13
2017-09-08T12:14:53.619Z,10.33
2017-09-08T12:17:20.624Z,9.50
2017-09-08T12:19:46.908Z,9.50
2017-09-08T12:22:13.216Z,8.83
2017-09-08T12:24:40.238Z,8.30
2017-09-08T12:27:06.536Z,9.03
2017-09-08T12:29:32.827Z,9.03
2017-09-08T12:31:59.128Z,9.03
2017-09-08T12:34:25.422Z,9.30
2017-09-08T12:36:51.756Z,9.97
2017-09-08T12:39:18.056Z,9.17
2017-09-08T12:41:44.354Z,8.77
2017-09-08T12:44:10.653Z,9.77
2017-09-08T12:46:36.928Z,8.70
2017-09-08T12:49:03.944Z,8.90
2017-09-08T12:51:30.273Z,8.90
2017-09-08T12:53:56.554Z,8.70
2017-09-08T12:56:22.864Z,9.20
2017-09-08T12:58:56.327Z,8.50
2017-09-08T13:01:22.644Z,9.37
2017-09-08T13:03:48.970Z,8.33
2017-09-08T13:06:15.240Z,7.73
2017-09-08T13:08:42.285Z,8.37
2017-09-08T13:11:09.314Z,8.60
2017-09-08T13:13:35.617Z,7.77
2017-09-08T13:16:01.923Z,8.37
2017-09-08T13:18:28.252Z,7.73
2017-09-08T13:20:54.574Z,6.87
2017-09-08T13:23:20.873Z,7.50
2017-09-08T13:25:47.190Z,7.83
2017-09-08T13:28:13.489Z,7.00
2017-09-08T13:30:39.761Z,8.60
2017-09-08T13:33:06.043Z,7.40
2017-09-08T13:35:32.328Z,7.50
2017-09-08T13:37:59.356Z,8.20
2017-09-08T13:40:26.485Z,7.33
2017-09-08T13:42:52.796Z,8.13
2017-09-08T13:45:19.080Z,8.30
2017-09-08T13:47:45.428Z,8.30
2017-09-08T13:50:11.700Z,7.80
2017-09-08T13:52:38.001Z,7.47
2017-09-08T13:55:04.295Z,7.83
2017-09-08T13:57:30.579Z,7.73
2017-09-08T13:59:56.868Z,8.23
2017-09-08T14:02:23.892Z,8.60
2017-09-08T14:04:50.174Z,7.80
2017-09-08T14:07:16.434Z,8.20
2017-09-08T14:09:42.741Z,8.80
2017-09-08T14:12:09.019Z,8.90
2017-09-08T14:14:35.346Z,9.30
2017-09-08T14:17:01.644Z,8.87
2017-09-08T14:19:27.958Z,8.10
2017-09-08T14:21:54.261Z,7.97
2017-09-08T14:24:21.319Z,7.93
2017-09-08T14:26:48.324Z,8.57
2017-09-08T14:29:14.603Z,7.73
2017-09-08T14:31:41.717Z,7.40
2017-09-08T14:34:08.753Z,7.17
2017-09-08T14:36:35.028Z,7.10
2017-09-08T14:39:01.308Z,7.27
2017-09-08T14:41:27.593Z,7.80
2017-09-08T14:43:53.979Z,7.57
2017-09-08T14:46:20.354Z,7.63
2017-09-08T14:48:46.666Z,7.43
2017-09-08T14:51:12.957Z,7.93
2017-09-08T14:53:39.997Z,6.60
2017-09-08T14:56:06.285Z,7.60
2017-09-08T14:58:32.567Z,7.07
2017-09-08T15:00:58.815Z,6.83
2017-09-08T15:03:25.840Z,6.73
2017-09-08T15:05:52.919Z,6.80
2017-09-08T15:08:19.940Z,6.23
2017-09-08T15:10:46.218Z,6.33
2017-09-08T15:13:12.497Z,6.13
2017-09-08T15:15:38.850Z,6.20
2017-09-08T15:18:05.137Z,6.93
2017-09-08T15:20:32.179Z,6.50
2017-09-08T15:22:58.445Z,6.93
2017-09-08T15:25:24.714Z,6.23
2017-09-08T15:27:51.035Z,6.43
2017-09-08T15:30:17.320Z,6.23
2017-09-08T15:32:44.362Z,5.87
2017-09-08T15:35:10.632Z,6.13
2017-09-08T15:37:36.896Z,7.20
2017-09-08T15:40:03.186Z,7.00
2017-09-08T15:42:29.516Z,6.00
2017-09-08T15:44:55.817Z,6.30
2017-09-08T15:47:22.101Z,5.90
2017-09-08T15:49:48.386Z,6.77
2017-09-08T15:52:15.323Z,7.77
2017-09-08T15:54:41.604Z,6.50
2017-09-08T15:57:07.863Z,6.20
2017-09-08T15:59:34.149Z,6.33
2017-09-08T16:02:00.429Z,6.30
2017-09-08T16:04:26.716Z,6.27
2017-09-08T16:06:52.995Z,6.43
2017-09-08T16:09:20.048Z,6.10
2017-09-08T16:11:47.063Z,5.83
2017-09-08T16:14:13.363Z,5.97
2017-09-08T16:16:39.665Z,6.17
2017-09-08T16:19:06.681Z,6.30
2017-09-08T16:21:32.965Z,5.60
2017-09-08T16:23:59.229Z,5.40
2017-09-08T16:26:25.517Z,6.60
2017-09-08T16:28:51.798Z,6.20
2017-09-08T16:31:18.103Z,6.10
2017-09-08T16:33:44.369Z,6.30
2017-09-08T16:36:11.401Z,6.30
2017-09-08T16:38:37.759Z,6.90
2017-09-08T16:41:04.782Z,6.17
2017-09-08T16:43:31.068Z,6.03
2017-09-08T16:45:57.367Z,7.50
2017-09-08T16:48:24.399Z,7.43
2017-09-08T16:50:51.442Z,7.63
2017-09-08T16:53:17.725Z,6.47
2017-09-08T16:55:44.018Z,6.40
2017-09-08T16:58:11.044Z,6.93
2017-09-08T17:00:37.326Z,7.83
2017-09-08T17:03:03.649Z,6.80
2017-09-08T17:05:29.937Z,6.67
2017-09-08T17:07:56.249Z,6.57
2017-09-08T17:10:22.520Z,6.20
2017-09-08T17:12:48.794Z,7.20
2017-09-08T17:15:15.054Z,6.07
2017-09-08T17:17:42.080Z,5.73
2017-09-08T17:20:08.355Z,6.00
2017-09-08T17:22:35.411Z,6.77
2017-09-08T17:27:34.845Z,6.40
2017-09-08T17:30:01.126Z,6.20
2017-09-08T17:32:27.403Z,6.70
2017-09-08T17:34:53.669Z,6.33
2017-09-08T17:37:19.945Z,6.60
2017-09-08T17:39:46.233Z,7.60
2017-09-08T17:42:12.542Z,7.30
2017-09-08T17:44:38.809Z,7.03
2017-09-08T17:47:05.885Z,7.30
2017-09-08T17:49:32.895Z,6.83
2017-09-08T17:51:59.156Z,8.10
2017-09-08T17:54:25.423Z,6.40
2017-09-08T17:56:51.682Z,6.43
2017-09-08T17:59:17.947Z,6.70
2017-09-08T18:01:44.240Z,6.80
2017-09-08T18:04:10.501Z,6.93
2017-09-08T18:06:36.784Z,6.17
2017-09-08T18:09:03.105Z,5.70
2017-09-08T18:11:29.405Z,6.70
2017-09-08T18:13:55.693Z,6.70
2017-09-08T18:16:22.739Z,6.73
2017-09-08T18:18:49.068Z,7.30
2017-09-08T18:21:16.133Z,6.83
2017-09-08T18:23:42.465Z,6.70
2017-09-08T18:26:09.512Z,6.30
2017-09-08T18:28:35.809Z,7.30
2017-09-08T18:31:02.128Z,6.50
2017-09-08T18:33:28.391Z,6.57
2017-09-08T18:35:55.430Z,7.30
2017-09-08T18:38:21.708Z,6.90
2017-09-08T18:40:47.989Z,7.13
2017-09-08T18:43:15.027Z,7.03
2017-09-08T18:45:41.290Z,6.73
2017-09-08T18:48:07.584Z,7.20
2017-09-08T18:50:33.881Z,7.70
2017-09-08T18:53:00.177Z,8.33
2017-09-08T18:55:28.168Z,7.77
2017-09-08T18:57:54.468Z,7.57
2017-09-08T19:00:21.499Z,7.80
2017-09-08T19:02:48.516Z,6.83
2017-09-08T19:05:14.766Z,8.03
2017-09-08T19:07:41.083Z,8.10
2017-09-08T19:10:07.360Z,7.20
2017-09-08T19:12:34.504Z,7.70
2017-09-08T19:15:01.516Z,7.60
2017-09-08T19:17:27.790Z,6.67
2017-09-08T19:19:54.062Z,6.83
2017-09-08T19:22:20.319Z,7.77
2017-09-08T19:24:47.342Z,7.00
2017-09-08T19:27:13.601Z,6.60
2017-09-08T19:29:40.611Z,7.37
2017-09-08T19:32:06.872Z,7.23
2017-09-08T19:34:33.885Z,7.70
2017-09-08T19:37:00.181Z,6.20
2017-09-08T19:39:26.441Z,6.57
2017-09-08T19:41:52.745Z,6.80
2017-09-08T19:44:19.016Z,7.03
2017-09-08T19:46:46.049Z,7.23
2017-09-08T19:49:13.211Z,6.80
2017-09-08T19:51:39.476Z,7.40
2017-09-08T19:54:06.493Z,7.50
2017-09-08T19:56:32.755Z,6.63
2017-09-08T19:58:59.043Z,7.07
2017-09-08T20:01:26.078Z,7.17
2017-09-08T20:03:52.373Z,7.50
2017-09-08T20:06:18.633Z,7.70
2017-09-08T20:08:44.941Z,8.97
2017-09-08T20:11:11.243Z,7.47
2017-09-08T20:13:37.581Z,7.73
2017-09-08T20:16:04.598Z,7.97
2017-09-08T20:18:30.880Z,7.87
2017-09-08T20:20:57.249Z,7.33
2017-09-08T20:23:23.525Z,8.90
2017-09-08T20:25:49.988Z,7.40
2017-09-08T20:28:16.432Z,7.90
2017-09-08T20:30:43.474Z,6.90
2017-09-08T20:33:10.533Z,7.57
2017-09-08T20:35:36.814Z,7.57
2017-09-08T20:38:03.488Z,7.63
2017-09-08T20:40:30.645Z,7.03
2017-09-08T20:42:57.683Z,7.20
2017-09-08T20:45:24.112Z,6.83
2017-09-08T20:47:50.396Z,7.70
2017-09-08T20:50:17.428Z,7.73
2017-09-08T20:52:44.434Z,8.67
2017-09-08T20:55:10.728Z,8.00
2017-09-08T20:57:37.000Z,8.70
2017-09-08T21:00:03.304Z,7.80
2017-09-08T21:02:29.597Z,9.13
2017-09-08T21:04:56.632Z,8.60
2017-09-08T21:07:23.809Z,8.20
2017-09-08T21:09:50.121Z,7.80
2017-09-08T21:12:17.173Z,8.60
2017-09-08T21:14:44.228Z,8.93
2017-09-08T21:17:10.530Z,8.77
2017-09-08T21:19:36.781Z,8.50
2017-09-08T21:22:03.817Z,9.20
2017-09-08T21:24:30.073Z,8.80
2017-09-08T21:26:56.361Z,8.40
2017-09-08T21:29:22.623Z,9.73
2017-09-08T21:31:49.840Z,8.90
2017-09-08T21:34:16.580Z,9.33
2017-09-08T21:36:43.816Z,9.20
2017-09-08T21:39:10.091Z,9.40
2017-09-08T21:41:36.382Z,8.87
2017-09-08T21:44:02.661Z,8.97
2017-09-08T21:46:28.946Z,8.53
2017-09-08T21:48:55.218Z,9.37
2017-09-08T21:51:21.525Z,9.47
2017-09-08T21:53:48.545Z,9.50
2017-09-08T21:56:15.598Z,9.17
2017-09-08T21:58:41.884Z,9.80
2017-09-08T22:01:08.225Z,10.00
2017-09-08T22:03:34.514Z,10.33
2017-09-08T22:06:01.541Z,8.43
2017-09-08T22:08:28.240Z,10.13
2017-09-08T22:10:54.506Z,8.70
2017-09-08T22:13:20.797Z,9.10
2017-09-08T22:15:47.055Z,9.20
2017-09-08T22:18:13.341Z,10.00
2017-09-08T22:20:40.234Z,9.67
2017-09-08T22:23:07.271Z,9.67
2017-09-08T22:25:33.584Z,9.30
2017-09-08T22:27:59.845Z,9.93
2017-09-08T22:30:26.099Z,9.57
2017-09-08T22:32:53.118Z,9.27
2017-09-08T22:35:19.387Z,9.20
2017-09-08T22:37:45.668Z,10.03
2017-09-08T22:40:11.938Z,9.30
2017-09-08T22:42:38.953Z,9.83
2017-09-08T22:45:05.228Z,10.50
2017-09-08T22:47:31.501Z,10.37
2017-09-08T22:49:57.805Z,9.80
2017-09-08T22:52:24.084Z,11.00
2017-09-08T22:54:51.088Z,9.70
2017-09-08T22:57:17.371Z,10.50
2017-09-08T22:59:44.419Z,10.37
2017-09-08T23:02:11.433Z,9.80
2017-09-08T23:04:37.733Z,10.93
2017-09-08T23:07:04.017Z,9.60
2017-09-08T23:09:31.039Z,9.50
2017-09-08T23:11:57.321Z,10.07
2017-09-08T23:14:23.572Z,9.63
2017-09-08T23:16:49.855Z,10.80
2017-09-08T23:19:16.126Z,9.33
2017-09-08T23:21:42.401Z,12.23
2017-09-08T23:24:09.416Z,10.37
2017-09-08T23:26:35.793Z,10.13
2017-09-08T23:29:02.053Z,10.00
2017-09-08T23:31:28.348Z,10.67
2017-09-08T23:33:55.355Z,9.60
2017-09-08T23:36:22.452Z,9.90
2017-09-08T23:38:48.737Z,10.43
2017-09-08T23:41:15.010Z,10.10
2017-09-08T23:43:41.265Z,9.87
2017-09-08T23:46:07.529Z,9.33
2017-09-08T23:48:33.794Z,10.13
2017-09-08T23:51:00.086Z,10.10
2017-09-08T23:53:26.352Z,9.40
2017-09-08T23:55:52.616Z,10.27
2017-09-08T23:58:19.673Z,10.60
